Time;durP1;ratioP1;P1;durP2;ratioP2;P2;SDS_P1;SDS_P2;PMS_P1;PMS_P2;Temp;Humidity;BMP_temperature;BMP_pressure;BME280_temperature;BME280_humidity;BME280_pressure;Samples;Min_cycle;Max_cycle;Signal;HPM_P1;HPM_P2
2022/09/09 00:00:33;;;;;;;48.05;40.90;;;;;;;31.16;71.35;98341.75;4892361;29;20054;-69
2022/09/09 00:03:24;;;;;;;56.35;42.47;;;;;;;31.15;71.16;98331.03;4886946;29;20048;-70
2022/09/09 00:06:29;;;;;;;55.10;42.90;;;;;;;31.11;71.53;98342.03;4892021;29;20053;-69
2022/09/09 00:09:12;;;;;;;52.13;41.20;;;;;;;31.05;71.52;98337.13;4854514;29;20054;-70
2022/09/09 00:12:22;;;;;;;54.35;40.97;;;;;;;31.07;71.77;98338.38;4855091;29;20056;-69
2022/09/09 00:15:23;;;;;;;51.85;41.25;;;;;;;31.03;71.89;98341.06;4854365;29;20049;-67
2022/09/09 00:18:39;;;;;;;53.33;40.97;;;;;;;31.09;71.57;98349.91;4858929;29;20064;-69
2022/09/09 00:21:39;;;;;;;55.55;40.83;;;;;;;31.07;71.91;98352.25;4871780;29;20057;-69
2022/09/09 00:24:29;;;;;;;54.40;41.28;;;;;;;31.07;71.91;98360.56;4872467;29;20049;-69
2022/09/09 00:27:29;;;;;;;60.42;41.92;;;;;;;31.06;72.28;98360.91;4876895;29;20061;-69
2022/09/09 00:30:31;;;;;;;57.53;41.97;;;;;;;31.08;71.82;98364.13;4876382;29;20066;-70
2022/09/09 00:33:31;;;;;;;49.47;42.42;;;;;;;31.08;72.22;98369.66;4872656;29;20490;-68
2022/09/09 00:36:15;;;;;;;60.63;43.80;;;;;;;31.08;71.92;98375.22;4873033;29;20056;-69
2022/09/09 00:39:11;;;;;;;53.03;42.70;;;;;;;31.10;72.19;98373.69;4873174;29;20044;-71
2022/09/09 00:42:16;;;;;;;58.33;45.53;;;;;;;31.11;72.35;98380.84;4873006;29;20055;-70
2022/09/09 00:45:32;;;;;;;67.88;43.03;;;;;;;31.06;72.38;98374.78;4869035;29;20072;-69
2022/09/09 00:48:21;;;;;;;58.47;44.42;;;;;;;31.01;72.29;98376.66;4878549;29;20070;-69
2022/09/09 00:51:18;;;;;;;65.32;46.85;;;;;;;31.05;72.69;98375.91;4872180;29;20061;-69
2022/09/09 00:54:27;;;;;;;55.92;44.90;;;;;;;31.02;72.63;98381.03;4871806;29;20048;-70
2022/09/09 00:57:27;;;;;;;55.45;43.15;;;;;;;31.01;72.75;98384.97;4872029;29;20363;-69
2022/09/09 01:00:39;;;;;;;58.53;46.30;;;;;;;31.06;72.56;98388.63;4872501;29;20132;-69
2022/09/09 01:03:37;;;;;;;52.47;44.13;;;;;;;31.07;72.55;98396.59;4872119;29;20053;-70
2022/09/09 01:06:41;;;;;;;58.20;44.65;;;;;;;31.08;72.85;98400.16;4872617;29;20056;-69
2022/09/09 01:09:26;;;;;;;56.40;44.83;;;;;;;31.13;72.80;98405.44;4853520;29;20394;-69
2022/09/09 01:12:18;;;;;;;56.55;43.75;;;;;;;31.13;72.87;98405.44;4854315;29;20057;-69
2022/09/09 01:15:12;;;;;;;59.35;45.03;;;;;;;31.20;72.37;98405.59;4853504;29;20058;-69
2022/09/09 03:34:49;;;;;;;65.43;43.70;;;;;;;33.65;63.26;98475.22;4855215;29;20032;-68
2022/09/09 03:37:38;;;;;;;69.32;44.90;;;;;;;33.82;64.20;98471.09;4854584;29;20079;-68
2022/09/09 03:40:21;;;;;;;;;;;;;;;34.03;63.10;98488.13;4856049;29;20768;-67
2022/09/09 03:43:17;;;;;;;63.13;43.25;;;;;;;34.10;62.80;98481.84;4855382;29;19934;-65
2022/09/09 03:46:12;;;;;;;62.25;46.25;;;;;;;34.09;61.76;98489.41;4865147;29;20041;-67
2022/09/09 03:48:54;;;;;;;56.80;41.33;;;;;;;34.22;62.25;98500.34;4891027;29;20052;-67
2022/09/09 03:51:43;;;;;;;60.70;41.75;;;;;;;34.22;62.43;98494.75;4883955;29;20067;-68
2022/09/09 03:54:31;;;;;;;62.72;44.80;;;;;;;34.22;60.96;98491.97;4865120;29;20067;-67
2022/09/09 03:57:16;;;;;;;62.50;43.30;;;;;;;34.38;60.83;98498.16;4883827;29;20050;-67
2022/09/09 04:00:06;;;;;;;57.95;42.08;;;;;;;34.38;60.82;98495.38;4837546;29;20299;-67
2022/09/09 04:03:05;;;;;;;59.60;42.92;;;;;;;34.46;60.77;98494.28;4837025;29;20041;-70
2022/09/09 04:05:42;;;;;;;54.25;38.88;;;;;;;34.39;60.66;98494.19;4509883;29;9999856;-63
2022/09/09 04:08:33;;;;;;;48.40;33.63;;;;;;;34.42;58.20;98498.22;4853163;29;20061;-66
2022/09/09 04:11:17;;;;;;;40.95;29.27;;;;;;;34.38;57.88;98495.38;4853076;29;20057;-65
2022/09/09 04:14:08;;;;;;;47.75;30.27;;;;;;;34.75;55.90;98494.63;4853599;29;20476;-67
2022/09/09 04:17:00;;;;;;;38.88;28.42;;;;;;;34.50;54.72;98495.13;4855667;29;20056;-66
2022/09/09 04:19:51;;;;;;;38.33;26.67;;;;;;;34.56;55.60;98492.00;4854010;29;20160;-67
2022/09/09 04:22:35;;;;;;;34.53;26.27;;;;;;;34.55;55.18;98496.78;4852855;29;20148;-68
2022/09/09 04:25:33;;;;;;;41.10;25.52;;;;;;;34.67;56.18;98504.13;4850406;29;20136;-67
2022/09/09 04:28:14;;;;;;;33.33;23.23;;;;;;;34.69;54.52;98499.75;4850306;29;20049;-68
2022/09/09 04:31:27;;;;;;;35.83;23.45;;;;;;;34.87;54.35;98502.75;4861159;29;20184;-67
2022/09/09 04:34:17;;;;;;;29.53;21.46;;;;;;;35.07;53.73;98506.13;4554109;29;8981784;-67
2022/09/09 04:37:13;;;;;;;29.73;21.65;;;;;;;35.54;51.86;98497.41;4854685;29;20603;-68
2022/09/09 04:40:03;;;;;;;32.67;21.65;;;;;;;35.79;53.05;98506.81;4855635;29;20045;-67
2022/09/09 04:42:47;;;;;;;29.73;20.13;;;;;;;35.79;53.38;98505.97;4852672;29;20095;-68
2022/09/09 04:45:46;;;;;;;31.60;20.33;;;;;;;35.83;52.90;98495.66;4837275;29;20053;-66
2022/09/09 04:48:27;;;;;;;34.00;20.93;;;;;;;35.89;52.81;98494.09;4836421;29;20196;-66
2022/09/09 04:51:17;;;;;;;32.42;20.90;;;;;;;36.16;52.64;98502.22;4823397;29;20125;-66
2022/09/09 04:54:05;;;;;;;32.17;20.90;;;;;;;36.57;50.31;98496.44;4837365;29;20049;-65
2022/09/09 04:56:59;;;;;;;29.10;19.77;;;;;;;36.90;51.04;98500.16;4837627;29;20045;-67
2022/09/09 04:59:45;;;;;;;32.85;21.02;;;;;;;37.10;51.30;98503.41;4853147;29;20069;-67
2022/09/09 05:02:42;;;;;;;29.48;19.75;;;;;;;37.18;49.97;98500.22;4836644;29;20160;-67
2022/09/09 05:05:25;;;;;;;31.23;20.27;;;;;;;37.61;49.76;98500.28;4835713;29;20073;-68
2022/09/09 05:08:15;;;;;;;25.15;18.75;;;;;;;37.00;49.64;98507.78;4835521;29;20059;-67
2022/09/09 05:11:07;;;;;;;38.58;19.65;;;;;;;37.11;50.20;98499.38;4852108;29;20045;-68
2022/09/09 05:13:52;;;;;;;31.40;19.58;;;;;;;37.59;51.22;98501.84;4851550;29;20124;-68
2022/09/09 05:16:44;;;;;;;26.33;19.20;;;;;;;37.52;50.51;98501.84;4854980;29;20056;-67
2022/09/09 05:19:30;;;;;;;27.27;19.85;;;;;;;37.59;47.37;98502.66;4854783;29;20140;-69
2022/09/09 05:22:26;;;;;;;35.55;20.20;;;;;;;37.35;48.56;98503.44;4854521;29;20063;-67
2022/09/09 05:25:15;;;;;;;25.40;18.70;;;;;;;37.22;50.11;98501.06;4854683;29;20147;-67
2022/09/09 05:27:56;;;;;;;25.30;19.17;;;;;;;37.70;48.38;98496.25;4871858;29;20113;-67
2022/09/09 05:31:00;;;;;;;28.00;19.35;;;;;;;37.89;49.83;98498.66;4855275;29;20048;-67
2022/09/09 05:33:53;;;;;;;25.25;18.90;;;;;;;37.55;47.70;98496.25;4854908;29;20060;-67
2022/09/09 05:36:41;;;;;;;22.73;17.95;;;;;;;37.63;49.46;98496.28;4855747;29;20484;-66
2022/09/09 05:39:37;;;;;;;26.58;17.60;;;;;;;38.09;47.29;98489.81;4854845;29;20136;-67
2022/09/09 05:42:16;;;;;;;25.77;18.10;;;;;;;38.13;48.26;98487.81;4855017;29;20148;-68
2022/09/09 05:45:07;;;;;;;26.90;17.17;;;;;;;37.91;46.83;98485.03;4857461;29;20461;-67
2022/09/09 05:47:50;;;;;;;23.52;17.55;;;;;;;37.69;49.09;98486.28;4868153;29;20084;-68
2022/09/09 05:50:39;;;;;;;25.40;17.60;;;;;;;38.08;48.62;98482.59;4852118;29;20081;-67
2022/09/09 05:53:21;;;;;;;25.60;18.02;;;;;;;37.90;47.46;98472.22;4875110;29;20150;-68
2022/09/09 05:56:17;;;;;;;29.90;19.45;;;;;;;36.90;50.57;98473.00;4857611;29;20049;-68
2022/09/09 05:59:08;;;;;;;24.27;17.77;;;;;;;37.01;52.89;98471.03;4858380;29;20059;-68
2022/09/09 06:01:50;;;;;;;22.60;17.60;;;;;;;37.45;50.26;98471.84;4858215;29;20057;-67
2022/09/09 06:04:43;;;;;;;;;;;;;;;37.50;49.80;98465.84;4858407;29;20504;-68
2022/09/09 06:07:26;;;;;;;22.38;16.92;;;;;;;37.42;50.26;98465.06;4863751;29;20263;-68
2022/09/09 06:10:16;;;;;;;28.98;17.33;;;;;;;36.98;50.27;98471.81;4863518;29;20057;-67
2022/09/09 06:13:05;;;;;;;24.85;18.05;;;;;;;37.35;48.09;98458.66;4838715;29;20059;-67
2022/09/09 06:16:04;;;;;;;28.92;17.17;;;;;;;37.31;49.30;98461.47;4854443;29;20049;-68
2022/09/09 06:18:48;;;;;;;25.52;16.58;;;;;;;37.94;48.21;98459.00;4839074;29;20129;-67
2022/09/09 06:21:52;;;;;;;26.15;16.33;;;;;;;37.79;50.27;98455.44;4849730;29;20049;-68
2022/09/09 06:24:43;;;;;;;22.55;15.77;;;;;;;36.88;49.54;98441.03;4857390;29;20706;-68
2022/09/09 06:27:34;;;;;;;26.95;16.67;;;;;;;36.41;51.43;98454.88;4857301;29;20060;-67
2022/09/09 06:30:24;;;;;;;26.50;16.75;;;;;;;36.73;52.17;98448.59;4844025;29;20053;-67
2022/09/09 06:33:15;;;;;;;24.88;16.98;;;;;;;36.66;52.71;98438.19;4839113;29;20484;-67
2022/09/09 06:36:09;;;;;;;21.60;16.42;;;;;;;36.38;52.11;98434.09;4856420;29;20358;-67
2022/09/09 06:38:59;;;;;;;24.60;17.35;;;;;;;36.65;52.93;98431.03;4837712;29;20045;-67
2022/09/09 06:41:55;;;;;;;20.90;16.63;;;;;;;36.76;54.72;98440.19;4828811;29;20044;-67
2022/09/09 06:45:04;;;;;;;28.02;16.20;;;;;;;36.77;51.61;98427.84;4839031;29;20064;-67
2022/09/09 06:48:01;;;;;;;22.40;16.65;;;;;;;36.80;51.00;98429.03;4838725;29;20136;-67
2022/09/09 06:50:44;;;;;;;21.70;16.83;;;;;;;36.55;50.45;98429.75;4855030;29;20042;-67
2022/09/09 06:53:34;;;;;;;19.13;16.23;;;;;;;37.33;49.51;98419.09;4839349;29;20060;-68
2022/09/09 06:56:22;;;;;;;24.15;17.58;;;;;;;37.55;49.06;98411.47;4854073;29;20045;-67
2022/09/09 06:59:17;;;;;;;20.13;15.25;;;;;;;37.52;49.32;98409.47;4839095;29;20053;-66
2022/09/09 07:02:11;;;;;;;22.30;16.38;;;;;;;37.88;49.21;98406.63;4856738;29;20378;-65
2022/09/09 07:05:04;;;;;;;17.85;15.20;;;;;;;37.80;50.69;98394.63;4838498;29;20535;-66
2022/09/09 07:07:48;;;;;;;19.70;14.98;;;;;;;37.73;52.21;98394.66;4857120;29;20053;-66
2022/09/09 07:10:44;;;;;;;26.25;15.35;;;;;;;37.06;48.81;98391.50;4857739;29;20049;-67
2022/09/09 07:13:31;;;;;;;17.33;14.23;;;;;;;37.30;48.68;98394.69;4843932;29;20057;-66
2022/09/09 07:16:24;;;;;;;22.80;16.02;;;;;;;37.18;48.18;98387.50;4856514;29;20048;-66
2022/09/09 07:19:14;;;;;;;21.40;15.45;;;;;;;37.60;48.41;98375.47;4824184;29;20342;-65
2022/09/09 07:22:03;;;;;;;25.13;15.80;;;;;;;37.56;48.91;98369.06;4856335;29;20532;-67
2022/09/09 07:24:47;;;;;;;26.02;15.02;;;;;;;37.51;48.53;98365.88;4870529;29;20054;-66
2022/09/09 07:27:35;;;;;;;24.23;14.73;;;;;;;37.60;49.75;98367.06;4891099;29;20711;-67
2022/09/09 07:30:25;;;;;;;19.50;14.38;;;;;;;37.70;48.08;98345.88;4861547;29;20060;-66
2022/09/09 07:33:16;;;;;;;19.20;14.93;;;;;;;37.15;48.84;98360.34;4874265;29;20132;-71
2022/09/09 07:36:09;;;;;;;21.92;13.60;;;;;;;37.83;49.76;98346.19;4867163;29;20160;-71
2022/09/09 07:39:01;;;;;;;18.15;14.43;;;;;;;37.22;49.43;98349.13;4841847;29;20148;-72
2022/09/09 07:41:58;;;;;;;17.15;14.98;;;;;;;37.41;49.24;98340.31;4855992;29;20045;-72
2022/09/09 07:44:42;;;;;;;15.93;13.50;;;;;;;37.58;47.61;98338.66;4859325;29;20053;-71
2022/09/09 07:47:33;;;;;;;18.15;14.88;;;;;;;37.14;49.12;98325.97;4842794;29;20053;-70
2022/09/09 07:50:21;;;;;;;22.92;13.55;;;;;;;37.41;47.58;98317.09;4857003;29;20758;-71
2022/09/09 07:53:16;;;;;;;20.75;13.50;;;;;;;37.41;48.34;98311.50;4871434;29;20045;-71
2022/09/09 07:56:13;;;;;;;23.50;13.25;;;;;;;37.85;48.19;98307.38;4841373;29;20064;-71
2022/09/09 07:59:00;;;;;;;19.10;13.00;;;;;;;37.34;47.81;98303.16;4854743;29;20049;-71
2022/09/09 08:01:58;;;;;;;17.80;14.10;;;;;;;36.84;49.09;98302.00;4873370;29;20044;-71
2022/09/09 08:04:53;;;;;;;22.77;14.10;;;;;;;37.26;49.28;98288.34;4889292;29;20522;-71
2022/09/09 08:07:47;;;;;;;23.75;14.50;;;;;;;37.43;49.49;98278.31;4845912;29;20500;-71
2022/09/09 08:10:29;;;;;;;19.13;12.68;;;;;;;37.55;47.83;98280.69;4880058;29;20080;-71
2022/09/09 08:13:20;;;;;;;26.10;13.82;;;;;;;37.58;48.07;98279.84;4844458;29;20073;-70
2022/09/09 08:16:10;;;;;;;19.77;13.57;;;;;;;37.50;47.85;98271.91;4862741;29;20079;-71
2022/09/09 08:19:00;;;;;;;20.08;13.15;;;;;;;37.46;48.51;98260.72;4861367;29;20056;-70
2022/09/09 08:21:48;;;;;;;24.90;14.43;;;;;;;37.52;47.93;98261.09;4865120;29;20625;-70
2022/09/09 08:24:43;;;;;;;17.83;13.07;;;;;;;37.57;47.68;98250.28;4852193;29;20068;-71
2022/09/09 08:27:37;;;;;;;21.92;13.55;;;;;;;37.46;48.24;98257.91;4877334;29;20053;-71
2022/09/09 08:30:20;;;;;;;16.10;12.77;;;;;;;37.21;46.21;98249.63;4839903;29;20056;-71
2022/09/09 08:33:15;;;;;;;16.10;12.75;;;;;;;37.32;46.45;98252.34;4845785;29;20060;-71
2022/09/09 08:36:18;;;;;;;19.73;14.13;;;;;;;37.18;47.79;98242.81;4873276;29;20064;-71
2022/09/09 08:39:08;;;;;;;21.90;14.77;;;;;;;37.07;49.52;98238.41;4852907;29;20041;-71
2022/09/09 08:42:06;;;;;;;17.65;13.45;;;;;;;37.26;47.13;98232.38;4842801;29;20044;-71
2022/09/09 08:45:20;;;;;;;17.40;12.80;;;;;;;36.98;48.47;98227.66;4853181;29;20044;-71
2022/09/09 08:48:18;;;;;;;24.77;12.70;;;;;;;36.92;50.50;98215.28;4838593;29;20052;-71
2022/09/09 08:51:02;;;;;;;20.55;13.77;;;;;;;37.15;46.31;98210.06;4871668;29;20060;-71
2022/09/09 08:53:55;;;;;;;20.52;13.50;;;;;;;36.71;47.87;98213.31;4855430;29;20057;-71
2022/09/09 08:56:40;;;;;;;19.17;12.80;;;;;;;36.62;48.26;98205.31;4843746;29;20052;-71
2022/09/09 08:59:29;;;;;;;18.13;12.93;;;;;;;37.01;47.45;98198.88;4854581;29;20045;-70
2022/09/09 09:02:45;;;;;;;22.58;13.13;;;;;;;36.60;49.92;98197.34;4850796;29;20576;-71
2022/09/09 09:05:49;;;;;;;19.27;12.48;;;;;;;37.05;49.10;98185.66;4801504;29;20064;-70
2022/09/09 09:08:59;;;;;;;24.27;13.43;;;;;;;36.88;49.05;98176.16;4863916;29;20145;-71
2022/09/09 09:11:47;;;;;;;17.52;12.68;;;;;;;36.92;47.95;98173.31;4855408;29;20112;-71
2022/09/09 09:14:46;;;;;;;17.00;13.18;;;;;;;36.76;49.63;98166.19;4844694;29;20045;-71
2022/09/09 09:17:37;;;;;;;19.35;12.50;;;;;;;36.94;49.17;98159.75;4855296;29;20651;-71
2022/09/09 09:20:41;;;;;;;18.45;12.25;;;;;;;37.04;47.56;98159.69;4857954;29;20057;-69
2022/09/09 09:23:38;;;;;;;20.23;13.05;;;;;;;37.14;49.23;98165.69;4843883;29;20063;-72
2022/09/09 09:26:36;;;;;;;19.43;13.63;;;;;;;36.85;48.15;98151.78;4876156;29;20436;-73
2022/09/09 09:29:25;;;;;;;19.80;12.68;;;;;;;37.02;48.16;98147.34;4858090;29;20057;-73
2022/09/09 09:32:24;;;;;;;16.65;13.00;;;;;;;36.27;50.36;98134.31;4840743;29;20050;-74
2022/09/09 09:35:21;;;;;;;20.02;13.75;;;;;;;36.81;49.19;98129.41;4854828;29;20100;-72
2022/09/09 09:38:30;;;;;;;20.95;13.40;;;;;;;36.84;50.87;98137.00;4840006;29;20052;-73
2022/09/09 09:41:43;;;;;;;19.88;12.98;;;;;;;36.51;51.21;98131.88;4848075;29;20132;-72
2022/09/09 09:44:39;;;;;;;25.25;14.18;;;;;;;36.33;52.87;98118.72;4850881;29;20063;-72
2022/09/09 09:47:26;;;;;;;22.92;13.55;;;;;;;36.01;52.66;98115.91;4850584;29;20060;-72
2022/09/09 09:50:26;;;;;;;17.58;12.43;;;;;;;35.99;50.19;98119.09;4868158;29;20057;-72
2022/09/09 09:53:34;;;;;;;19.05;13.02;;;;;;;36.05;50.44;98117.50;4850323;29;20354;-72
2022/09/09 09:56:23;;;;;;;;;;;;;;;36.21;51.81;98113.53;4841226;29;20068;-71
2022/09/09 09:59:35;;;;;;;19.45;13.43;;;;;;;35.86;51.28;98101.16;4850319;29;19928;-72
2022/09/09 10:02:45;;;;;;;19.92;13.55;;;;;;;35.98;51.92;98095.19;4846205;29;20533;-71
2022/09/09 10:05:46;;;;;;;22.98;14.77;;;;;;;35.60;51.35;98094.75;4827570;29;20124;-72
2022/09/09 10:08:52;;;;;;;19.45;14.20;;;;;;;35.86;51.54;98101.16;4864954;29;20805;-75
2022/09/09 10:11:46;;;;;;;18.17;13.75;;;;;;;35.97;50.84;98092.78;4848680;29;20061;-73
2022/09/09 10:15:05;;;;;;;22.40;14.15;;;;;;;35.87;50.10;98094.38;4865280;29;20049;-70
2022/09/09 10:18:01;;;;;;;17.05;13.15;;;;;;;35.79;53.87;98084.41;4834376;29;20056;-69
2022/09/09 10:21:08;;;;;;;18.97;14.20;;;;;;;35.77;51.38;98078.41;4863048;29;20045;-70
2022/09/09 10:24:11;;;;;;;22.55;17.50;;;;;;;35.28;51.52;98087.09;4856358;29;20049;-69
2022/09/09 10:26:59;;;;;;;36.05;23.55;;;;;;;34.87;54.13;98094.88;4855698;29;20049;-70
2022/09/09 10:30:01;;;;;;;28.67;21.52;;;;;;;34.77;55.10;98099.22;4864587;29;20481;-70
2022/09/09 10:33:05;;;;;;;26.02;22.05;;;;;;;34.36;55.95;98116.09;4857831;29;20049;-70
2022/09/09 10:36:12;;;;;;;33.65;23.15;;;;;;;34.52;56.15;98115.78;4874883;29;20116;-70
2022/09/09 10:39:40;;;;;;;28.42;21.17;;;;;;;34.34;56.72;98135.19;4854132;29;20485;-71
2022/09/09 10:42:39;;;;;;;33.17;24.63;;;;;;;33.71;58.68;98117.53;4870581;29;20061;-71
2022/09/09 10:45:44;;;;;;;36.28;25.27;;;;;;;33.25;59.32;98104.72;4844531;29;20052;-70
2022/09/09 10:48:50;;;;;;;35.75;24.23;;;;;;;33.29;58.11;98122.25;4857277;29;20116;-68
2022/09/09 10:52:05;;;;;;;25.15;20.40;;;;;;;32.50;59.87;98135.06;4876795;29;20053;-68
2022/09/09 10:55:14;;;;;;;25.15;19.92;;;;;;;32.32;61.03;98125.66;4857914;29;20049;-69
2022/09/09 10:58:20;;;;;;;34.88;22.55;;;;;;;32.28;62.18;98133.13;4828280;29;20146;-69
2022/09/09 11:01:25;;;;;;;31.50;24.67;;;;;;;31.94;65.80;98139.28;4860268;29;20051;-68
2022/09/09 11:04:34;;;;;;;34.67;23.30;;;;;;;31.62;66.45;98119.31;4875006;29;20049;-68
2022/09/09 11:07:43;;;;;;;29.08;21.98;;;;;;;31.56;66.05;98112.47;4861329;29;20041;-69
2022/09/09 11:10:58;;;;;;;27.58;21.70;;;;;;;31.88;66.74;98099.16;4870206;29;20733;-69
2022/09/09 11:14:04;;;;;;;26.80;19.27;;;;;;;31.70;66.27;98093.31;4848821;29;20549;-69
2022/09/09 11:16:54;;;;;;;21.92;17.88;;;;;;;31.64;65.06;98103.09;4861661;29;20057;-70
2022/09/09 11:19:52;;;;;;;21.52;16.50;;;;;;;31.66;66.04;98100.75;4878682;29;20055;-70
2022/09/09 11:23:12;;;;;;;24.15;16.60;;;;;;;31.79;65.77;98098.59;4880309;29;20049;-70
2022/09/09 11:26:10;;;;;;;20.25;15.05;;;;;;;31.86;65.63;98097.94;4853047;29;20101;-70
2022/09/09 11:29:48;;;;;;;20.67;15.93;;;;;;;32.22;64.37;98096.56;4869835;29;20064;-70
2022/09/09 11:32:57;;;;;;;25.63;18.48;;;;;;;32.22;66.23;98098.50;4526116;29;10001272;-71
2022/09/09 11:36:22;;;;;;;22.92;16.30;;;;;;;32.08;64.28;98090.78;4848544;29;20137;-69
2022/09/09 11:39:40;;;;;;;16.67;14.38;;;;;;;31.92;63.43;98086.13;4845534;29;20140;-69
2022/09/09 11:42:40;;;;;;;17.85;15.35;;;;;;;31.86;64.55;98081.28;4836958;29;20045;-70
2022/09/09 11:45:29;;;;;;;16.65;14.85;;;;;;;32.11;62.09;98079.72;4833864;29;20052;-70
2022/09/09 11:48:45;;;;;;;18.38;14.80;;;;;;;32.46;62.81;98075.88;4827795;29;20138;-70
2022/09/09 11:51:37;;;;;;;19.90;15.85;;;;;;;32.68;64.72;98085.34;4826208;29;20269;-71
2022/09/09 11:54:33;;;;;;;24.92;16.98;;;;;;;32.29;63.95;98070.88;4839956;29;20057;-69
2022/09/09 11:57:43;;;;;;;24.88;17.10;;;;;;;32.30;61.81;98078.03;4841370;29;20546;-70
2022/09/09 12:00:38;;;;;;;20.73;15.90;;;;;;;32.51;58.84;98072.78;4820543;29;20073;-70
2022/09/09 12:03:48;;;;;;;21.58;17.30;;;;;;;32.42;62.22;98075.03;4842190;29;20759;-69
2022/09/09 12:06:50;;;;;;;;;;;;;;;32.48;61.16;98079.06;4810092;29;20074;-69
2022/09/09 12:09:51;;;;;;;22.40;16.90;;;;;;;32.30;62.63;98072.47;4497929;29;9999913;-71
2022/09/09 12:12:48;;;;;;;81.50;20.40;;;;;;;32.43;60.82;98068.31;4832312;29;20061;-70
2022/09/09 12:15:29;;;;;;;24.20;17.48;;;;;;;32.57;62.29;98081.59;4846395;29;20044;-70
2022/09/09 12:18:44;;;;;;;18.80;15.65;;;;;;;32.55;63.19;98079.16;4863681;29;20064;-69
2022/09/09 12:21:58;;;;;;;24.73;16.27;;;;;;;32.54;59.14;98073.97;4848288;29;20052;-69
2022/09/09 12:24:59;;;;;;;16.95;14.85;;;;;;;32.48;60.60;98073.50;4819226;29;20049;-69
2022/09/09 12:28:01;;;;;;;27.10;20.05;;;;;;;32.53;63.48;98070.41;4836998;29;20048;-73
2022/09/09 12:31:17;;;;;;;25.08;19.42;;;;;;;32.80;62.84;98078.72;4809170;29;20138;-70
2022/09/09 12:34:33;;;;;;;32.75;20.80;;;;;;;32.87;65.60;98078.81;4844098;29;20057;-71
2022/09/09 12:37:46;;;;;;;28.38;19.98;;;;;;;32.85;65.38;98072.84;4842638;29;20522;-71
2022/09/09 12:40:48;;;;;;;25.45;19.52;;;;;;;32.85;65.50;98074.84;4842949;29;20051;-71
2022/09/09 12:43:38;;;;;;;25.77;19.90;;;;;;;32.85;65.55;98075.63;4862478;29;20080;-71
2022/09/09 12:46:51;;;;;;;29.20;20.58;;;;;;;32.83;63.72;98077.97;4842710;29;20132;-70
2022/09/09 12:49:40;;;;;;;23.58;20.35;;;;;;;32.85;63.44;98063.72;4857292;29;20060;-69
2022/09/09 12:52:37;;;;;;;25.42;18.20;;;;;;;32.67;58.87;98061.50;4862137;29;20049;-70
2022/09/09 12:55:30;;;;;;;33.38;22.63;;;;;;;32.73;62.10;98059.19;4858651;29;20144;-70
2022/09/09 12:58:20;;;;;;;31.15;22.58;;;;;;;32.73;64.08;98057.22;4856116;29;20049;-69
2022/09/09 13:01:31;;;;;;;37.63;24.52;;;;;;;32.77;65.68;98057.25;4840510;29;20049;-70
2022/09/09 13:04:22;;;;;;;38.13;25.80;;;;;;;32.71;65.00;98061.53;4863072;29;20053;-69
2022/09/09 13:07:16;;;;;;;36.83;24.73;;;;;;;32.61;64.86;98059.44;4865351;29;20137;-70
2022/09/09 13:09:59;;;;;;;37.08;25.20;;;;;;;32.55;64.93;98062.50;4843953;29;20651;-69
2022/09/09 13:12:50;;;;;;;35.55;24.13;;;;;;;32.53;65.00;98062.09;4861018;29;20052;-69
2022/09/09 13:15:37;;;;;;;42.63;25.58;;;;;;;32.53;64.61;98053.75;4853349;29;20569;-69
2022/09/09 13:18:35;;;;;;;38.38;24.17;;;;;;;32.66;66.28;98053.56;4842843;29;20057;-69
2022/09/09 13:21:20;;;;;;;35.45;24.50;;;;;;;32.70;66.41;98055.19;4851251;29;20624;-70
2022/09/09 13:24:35;;;;;;;36.42;24.65;;;;;;;32.82;66.45;98065.25;4835689;29;20073;-69
2022/09/09 13:27:41;;;;;;;38.28;23.63;;;;;;;32.83;66.36;98058.53;4837088;29;20079;-69
2022/09/09 13:30:43;;;;;;;42.97;25.63;;;;;;;32.82;67.00;98059.69;4855463;29;20057;-68
2022/09/09 13:33:45;;;;;;;33.30;23.98;;;;;;;32.78;68.08;98069.97;4859949;29;20050;-69
2022/09/09 13:36:35;;;;;;;43.40;25.70;;;;;;;32.77;66.91;98060.84;4843850;29;20966;-69
2022/09/09 13:39:32;;;;;;;29.80;23.33;;;;;;;32.75;68.79;98065.97;4863493;29;20053;-68
2022/09/09 13:42:35;;;;;;;36.92;23.13;;;;;;;32.72;67.60;98060.38;4878611;29;20057;-68
2022/09/09 13:45:31;;;;;;;37.63;25.25;;;;;;;32.67;68.40;98064.28;4873395;29;20151;-69
2022/09/09 13:48:22;;;;;;;32.47;23.67;;;;;;;32.68;68.10;98053.97;4873383;29;20148;-68
2022/09/09 13:51:37;;;;;;;34.22;24.33;;;;;;;32.78;68.57;98053.31;4551991;29;10001356;-69
2022/09/09 13:54:42;;;;;;;41.22;26.45;;;;;;;32.81;68.69;98058.13;4855997;29;20126;-71
2022/09/09 13:57:20;;;;;;;35.83;26.25;;;;;;;32.82;67.72;98056.91;4854069;29;20049;-69
2022/09/09 14:00:13;;;;;;;38.03;25.35;;;;;;;32.84;68.40;98060.13;4842266;29;20045;-71
2022/09/09 14:03:03;;;;;;;46.55;26.05;;;;;;;32.81;68.58;98054.50;4864968;29;20055;-71
2022/09/09 14:05:57;;;;;;;38.88;26.20;;;;;;;32.82;68.29;98062.47;4856011;29;20703;-71
2022/09/09 14:08:51;;;;;;;36.47;25.63;;;;;;;32.84;67.32;98065.66;4880231;29;20449;-70
2022/09/09 14:11:40;;;;;;;39.88;27.05;;;;;;;32.86;67.43;98066.09;4856228;29;20166;-71
2022/09/09 14:14:25;;;;;;;41.30;26.80;;;;;;;32.82;67.63;98064.47;4889574;29;20144;-71
2022/09/09 14:17:31;;;;;;;42.20;26.77;;;;;;;32.89;67.89;98070.13;4872449;29;20063;-71
2022/09/09 14:20:11;;;;;;;49.90;28.45;;;;;;;32.94;66.86;98059.47;4860639;29;20125;-70
2022/09/09 14:23:03;;;;;;;35.00;25.58;;;;;;;32.97;64.66;98071.78;4881974;29;20163;-70
2022/09/09 14:25:56;;;;;;;45.70;27.08;;;;;;;32.99;66.74;98074.19;4860964;29;20049;-70
2022/09/09 14:28:57;;;;;;;42.73;26.57;;;;;;;32.99;66.27;98074.19;4843774;29;20088;-70
2022/09/09 14:31:38;;;;;;;41.70;25.75;;;;;;;32.96;66.03;98073.78;4858586;29;20284;-70
2022/09/09 14:34:35;;;;;;;42.63;27.42;;;;;;;32.93;66.03;98076.50;4858378;29;20053;-70
2022/09/09 14:37:20;;;;;;;39.78;26.00;;;;;;;32.95;65.32;98077.72;4871379;29;20053;-71
2022/09/09 14:40:18;;;;;;;45.22;26.95;;;;;;;32.97;65.06;98080.91;4870927;29;20049;-71
2022/09/09 14:43:11;;;;;;;40.63;24.95;;;;;;;32.91;64.39;98084.44;4842985;29;20051;-71
2022/09/09 14:46:02;;;;;;;38.83;25.80;;;;;;;32.96;65.69;98086.84;4869557;29;20139;-72
2022/09/09 14:48:48;;;;;;;40.63;25.27;;;;;;;32.90;64.74;98089.16;4881164;29;20149;-71
2022/09/09 14:51:39;;;;;;;29.48;24.13;;;;;;;32.94;63.53;98086.44;4863963;29;20049;-70
2022/09/09 14:54:22;;;;;;;35.63;24.00;;;;;;;32.96;63.30;98090.47;4845261;29;20145;-69
2022/09/09 14:57:12;;;;;;;34.40;25.33;;;;;;;32.99;63.59;98091.66;4855419;29;20056;-68
2022/09/09 14:59:54;;;;;;;39.67;25.70;;;;;;;32.98;64.51;98092.88;4860904;29;20049;-69
2022/09/09 15:02:47;;;;;;;41.58;25.33;;;;;;;32.90;64.35;98094.72;4873780;29;20048;-68
2022/09/09 15:05:39;;;;;;;31.92;23.90;;;;;;;32.92;63.27;98097.94;4889904;29;20045;-68
2022/09/09 15:08:29;;;;;;;43.70;27.08;;;;;;;32.87;64.40;98103.03;4873701;29;20140;-69
2022/09/09 15:11:12;;;;;;;31.35;24.90;;;;;;;32.87;65.23;98105.81;4890506;29;20056;-69
2022/09/09 15:14:03;;;;;;;43.22;27.50;;;;;;;32.85;64.73;98110.97;4875886;29;20048;-68
2022/09/09 15:16:45;;;;;;;40.63;26.00;;;;;;;32.91;63.50;98109.44;4851117;29;20532;-67
2022/09/09 15:19:36;;;;;;;46.58;28.33;;;;;;;32.90;65.30;98105.84;4858166;29;20108;-68
2022/09/09 15:22:19;;;;;;;42.60;26.88;;;;;;;32.87;63.23;98109.41;4888125;29;20131;-67
2022/09/09 15:25:12;;;;;;;40.83;27.10;;;;;;;32.89;62.78;98115.38;4879086;29;20072;-67
2022/09/09 15:27:56;;;;;;;38.45;26.95;;;;;;;32.87;63.13;98106.63;4863658;29;20073;-68
2022/09/09 15:30:46;;;;;;;39.60;27.50;;;;;;;32.89;66.25;98109.03;4850689;29;20044;-67
2022/09/09 15:33:30;;;;;;;39.58;28.85;;;;;;;32.88;64.92;98115.75;4877720;29;20044;-69
2022/09/09 15:36:22;;;;;;;41.00;28.15;;;;;;;32.83;63.04;98119.66;4862735;29;20063;-69
2022/09/09 15:39:15;;;;;;;43.83;29.35;;;;;;;32.80;65.57;98117.63;4860883;29;20131;-68
2022/09/09 15:42:14;;;;;;;49.53;28.45;;;;;;;32.79;65.23;98116.03;4505079;29;10000034;-67